Fulton, IN (46931)

11:18 PM EDT on October 31, 2014 (GMT -0400)
Leroy's BarnYard | Change Station
CLOSE
Current Station
Personal Weather Station
Location: Kewanna, IN
Elevation: 758 ft
Nearby Weather Stations

Elev 758 ft 40.99 °N, 86.35 °W | Updated 3 minutes ago

Partly Cloudy
Partly Cloudy
32.7 °F
Feels Like 24 °F
N
12.0
Wind Variable Wind from NNE
Gusts 22.0 mph

Today
High -- | Low -- °F
--% Chance of Precip.
Yesterday
High -- | Low -- °F
Precip. -- in
8:14 AM 6:42 PM
First Quarter, 62% visible
Pressure 30.22 in
Visibility 10.0 miles
Clouds Clear
Windchill 24 °F
Dew Point 26 °F
Humidity 77%
Rainfall 0.05 in
Snow Depth Not available.
UV 0 out of 12
Pollen .10 out of 12
Air Quality Not available.
Flu Activity Not available.
METAR KRCR 010255Z AUTO 36014G24KT 10SM CLR 01/M03 A3022 RMK AO2

More Conditions Fewer Conditions

Pressure 30.22 in
Visibility 10.0 miles
Clouds Clear
Windchill 24 °F
Dew Point 26 °F
Humidity 77%
Rainfall 0.05 in
Snow Depth Not available.
UV 0 out of 12
Pollen .10 out of 12
Air Quality Not available.
Flu Activity Not available.
METAR KRCR 010255Z AUTO 36014G24KT 10SM CLR 01/M03 A3022 RMK AO2

More Conditions Fewer Conditions

10-Day Weather Forecast

Almanac

Astronomy

Oct. 31, 2014 Rise Set
Actual Time
Civil Twilight
Nautical Twilight
Astronomical Twilight
Moon
Length of Visible Light
Length of Day
Tomorrow will be .
, % of the Moon is Illuminated

Today's Extremes

State Highs State Lows

Community

WunderPhotos

Upload Photos

1,766,837 photos uploaded!

WunderBlogs® & News

Nearby

Air Quality

  Air Quality AQ Index Pollutant
Not available.

Snow Depth

Station Depth Elevation

Earthquake Activity

City Distance Mag. Time & Date
Minimum magnitude displayed is 2.5.

Coastal Water Temperatures

Place Temperature

Nearby Weather Stations